Genesis — WDE5925 — position and weather

sailwx.info

Track history (hours):
 
Tides and Currents Weather Stations Pressure Air Temp Water Temp Dewpoint Dewpoint Depression Visibility Wind Speed Wind Dir Waves Ship Positions

Genesis

Owner: EXPLORER MARINE LOGISTICS, LLC, Port Isabel, TX. More information available from US FCC via Universal Licensing System and Coast Guard Vessel Documentation Center.

Last reported at 2018-May-16 10:16 UTC. Time now 2018-Jun-21 11:39 UTC.
Position N 29°48' W 093°20'.
Warning: this ship's position is 36 days out of date.

Length 18 m.

Type: Passenger vessel. MMSI: 367373390.

Date/timePositionNaut miles runAvg speedWind from/ knotsBaromVisibWave heightAir tempDewpointWater temp
2018-May-16 10:16N 29°48' W 093°20'0 0.0
2018-May-16 09:25N 29°48' W 093°20'0 0.0
2018-May-16 05:21N 29°48' W 093°20'0 0.0
2018-May-16 04:56N 29°48' W 093°20'54 3.5
2018-May-15 13:40N 29°17' W 094°11'54 2.7
2018-May-14 17:33N 29°48' W 093°20'0 0.0
2018-May-14 17:25N 29°48' W 093°20'  
2018-May-09 06:12N 29°37' W 093°23'12 8.0
2018-May-09 04:40N 29°49' W 093°20'0 0.0
2018-May-09 04:30N 29°49' W 093°20'0 0.0
2018-May-09 04:00N 29°49' W 093°20'0 0.1
2018-May-09 03:30N 29°49' W 093°20'1 1.4
2018-May-09 03:00N 29°49' W 093°21'2 3.2
2018-May-09 02:30N 29°48' W 093°20'0 0.0
2018-May-09 01:41N 29°48' W 093°20'0 0.0
2018-May-09 01:25N 29°48' W 093°20'2 1.3
2018-May-09 00:00N 29°49' W 093°21'811.6
2018-May-08 23:19N 29°41' W 093°21'4 1.9
2018-May-08 21:02N 29°37' W 093°23'0 0.1
2018-May-08 20:59N 29°37' W 093°23'0 0.0
2018-May-08 20:31N 29°37' W 093°23'0 0.0
2018-May-08 20:01N 29°37' W 093°23'0 0.0
2018-May-08 19:31N 29°37' W 093°23'0 0.0
2018-May-08 18:59N 29°37' W 093°23'0 0.0
2018-May-08 18:30N 29°37' W 093°23'12 1.5
2018-May-08 10:32N 29°49' W 093°21'1 9.1
2018-May-08 10:25N 29°48' W 093°21'1 1.6
2018-May-08 09:42N 29°48' W 093°20'0 0.0
2018-May-08 09:28N 29°48' W 093°20'0 0.0
2018-May-08 08:45N 29°48' W 093°20'11 6.5
2018-May-08 07:05N 29°37' W 093°23'0 0.2
2018-May-08 06:59N 29°37' W 093°23'0 0.0
2018-May-08 06:30N 29°37' W 093°23'0 0.1
2018-May-08 05:58N 29°37' W 093°23'0 0.0
2018-May-08 05:28N 29°37' W 093°23'0 0.0
2018-May-08 05:00N 29°37' W 093°23'0 0.1
2018-May-08 04:30N 29°37' W 093°23'0 0.0
2018-May-08 02:59N 29°37' W 093°23'0 0.0
2018-May-08 01:45N 29°37' W 093°23'0 0.0
2018-May-07 13:37N 29°37' W 093°23'0 1.2
2018-May-07 13:30N 29°37' W 093°23'11 2.8
2018-May-07 09:42N 29°48' W 093°20'0 0.0
2018-May-07 08:44N 29°48' W 093°20'0 0.0
2018-May-07 07:33N 29°48' W 093°20'0 0.2
2018-May-07 07:30N 29°48' W 093°20'0 0.0
2018-May-07 06:52N 29°48' W 093°20'0 0.0
2018-May-07 06:28N 29°48' W 093°20'0 0.0
2018-May-07 05:51N 29°48' W 093°20'  
Track history (hours):
 
Tides and Currents Weather Stations Pressure Air Temp Water Temp Dewpoint Dewpoint Depression Visibility Wind Speed Wind Dir Waves Ship Positions

Genesis

Owner: EXPLORER MARINE LOGISTICS, LLC, Port Isabel, TX. More information available from US FCC via Universal Licensing System and Coast Guard Vessel Documentation Center.

Last reported at 2018-May-16 10:16 UTC. Time now 2018-Jun-21 11:39 UTC.
Position N 29°48' W 093°20'.
Warning: this ship's position is 36 days out of date.

Length 18 m.

Type: Passenger vessel. MMSI: 367373390.

Date/timePositionNaut miles runAvg speedWind from/ knotsBaromVisibWave heightAir tempDewpointWater temp
2018-May-16 10:16N 29°48' W 093°20'0 0.0
2018-May-16 09:25N 29°48' W 093°20'0 0.0
2018-May-16 05:21N 29°48' W 093°20'0 0.0
2018-May-16 04:56N 29°48' W 093°20'54 3.5
2018-May-15 13:40N 29°17' W 094°11'54 2.7
2018-May-14 17:33N 29°48' W 093°20'0 0.0
2018-May-14 17:25N 29°48' W 093°20'  
2018-May-09 06:12N 29°37' W 093°23'12 8.0
2018-May-09 04:40N 29°49' W 093°20'0 0.0
2018-May-09 04:30N 29°49' W 093°20'0 0.0
2018-May-09 04:00N 29°49' W 093°20'0 0.1
2018-May-09 03:30N 29°49' W 093°20'1 1.4
2018-May-09 03:00N 29°49' W 093°21'2 3.2
2018-May-09 02:30N 29°48' W 093°20'0 0.0
2018-May-09 01:41N 29°48' W 093°20'0 0.0
2018-May-09 01:25N 29°48' W 093°20'2 1.3
2018-May-09 00:00N 29°49' W 093°21'811.6
2018-May-08 23:19N 29°41' W 093°21'4 1.9
2018-May-08 21:02N 29°37' W 093°23'0 0.1
2018-May-08 20:59N 29°37' W 093°23'0 0.0
2018-May-08 20:31N 29°37' W 093°23'0 0.0
2018-May-08 20:01N 29°37' W 093°23'0 0.0
2018-May-08 19:31N 29°37' W 093°23'0 0.0
2018-May-08 18:59N 29°37' W 093°23'0 0.0
2018-May-08 18:30N 29°37' W 093°23'12 1.5
2018-May-08 10:32N 29°49' W 093°21'1 9.1
2018-May-08 10:25N 29°48' W 093°21'1 1.6
2018-May-08 09:42N 29°48' W 093°20'0 0.0
2018-May-08 09:28N 29°48' W 093°20'0 0.0
2018-May-08 08:45N 29°48' W 093°20'11 6.5
2018-May-08 07:05N 29°37' W 093°23'0 0.2
2018-May-08 06:59N 29°37' W 093°23'0 0.0
2018-May-08 06:30N 29°37' W 093°23'0 0.1
2018-May-08 05:58N 29°37' W 093°23'0 0.0
2018-May-08 05:28N 29°37' W 093°23'0 0.0
2018-May-08 05:00N 29°37' W 093°23'0 0.1
2018-May-08 04:30N 29°37' W 093°23'0 0.0
2018-May-08 02:59N 29°37' W 093°23'0 0.0
2018-May-08 01:45N 29°37' W 093°23'0 0.0
2018-May-07 13:37N 29°37' W 093°23'0 1.2
2018-May-07 13:30N 29°37' W 093°23'11 2.8
2018-May-07 09:42N 29°48' W 093°20'0 0.0
2018-May-07 08:44N 29°48' W 093°20'0 0.0
2018-May-07 07:33N 29°48' W 093°20'0 0.2
2018-May-07 07:30N 29°48' W 093°20'0 0.0
2018-May-07 06:52N 29°48' W 093°20'0 0.0
2018-May-07 06:28N 29°48' W 093°20'0 0.0
2018-May-07 05:51N 29°48' W 093°20'  

Dump ship's entire track history